Overall Pressure and Temp Fo

24 Hour Pressure and Temp Fo
Weather Index
Time Temp Pressure Humidity
Fri, May 25, 2018 at 5:00 PM ( 87.188℉ )- ( 30.66℃ ) 1015 - (1.75) 14%
Fri, May 25, 2018 at 4:00 PM ( 87.458℉ )- ( 30.81℃ ) 1017 - (3.75) 10%
Fri, May 25, 2018 at 3:00 PM ( 87.494℉ )- ( 30.83℃ ) 1016 - (2.75) 11%
Fri, May 25, 2018 at 2:00 PM ( 85.964℉ )- ( 29.98℃ ) 1017 - (3.75) 18%
Fri, May 25, 2018 at 1:00 PM ( 84.776℉ )- ( 29.32℃ ) 1018 - (4.75) 16%
Fri, May 25, 2018 at 12:00 PM ( 82.094℉ )- ( 27.83℃ ) 1018 - (4.75) 23%
Fri, May 25, 2018 at 11:00 AM ( 78.8℉ )- ( 26℃ ) 1020 - (6.75) 21%
Fri, May 25, 2018 at 10:00 AM ( 73.958℉ )- ( 23.31℃ ) 1020 - (6.75) 31%
Fri, May 25, 2018 at 9:00 AM ( 69.746℉ )- ( 20.97℃ ) 1020 - (6.75) 36%
Fri, May 25, 2018 at 8:00 AM ( 64.328℉ )- ( 17.96℃ ) 1020 - (6.75) 43%
Fri, May 25, 2018 at 7:00 AM ( 59.234℉ )- ( 15.13℃ ) 1020 - (6.75) 59%
Fri, May 25, 2018 at 6:00 AM ( 54.248℉ )- ( 12.36℃ ) 1020 - (6.75) 71%
Fri, May 25, 2018 at 5:00 AM ( 51.89℉ )- ( 11.05℃ ) 1020 - (6.75) 81%
Fri, May 25, 2018 at 4:00 AM ( 52.934℉ )- ( 11.63℃ ) 1021 - (7.75) 87%
Fri, May 25, 2018 at 3:00 AM ( 55.67℉ )- ( 13.15℃ ) 1021 - (7.75) 76%
Fri, May 25, 2018 at 1:00 AM ( 58.262℉ )- ( 14.59℃ ) 1020 - (6.75) 54%
Fri, May 25, 2018 at 12:00 AM ( 59.9℉ )- ( 15.5℃ ) 1020 - (6.75) 58%
Thu, May 24, 2018 at 11:00 PM ( 62.618℉ )- ( 17.01℃ ) 1020 - (6.75) 51%
Thu, May 24, 2018 at 10:00 PM ( 63.59℉ )- ( 17.55℃ ) 1020 - (6.75) 58%
Thu, May 24, 2018 at 9:00 PM ( 69.368℉ )- ( 20.76℃ ) 1020 - (6.75) 59%


Temp Data Info
All Data is Loveland Colorado. Over time ill expand to more cities however right now i want to collect the data.

Live Data

87.188° F

1015 Pressure

14% Humidity

1013.25 Is Avarage Sea Level Pressure.
The Differental is 1.75
Max Temp Prediction: 89.6°F
Min Temp Prediction: 84.2°F

Records
The Highest Record Temp Set here is:

49.982°F

What is Weather ID?
WeatherID is a 24 hour intiger system that allows a restful rotation of weather information per day. This is designed to prevent the need for multiple cron processes on a website.